sensor_id;sensor_type;location;lat;lon;timestamp;P1;durP1;ratioP1;P2;durP2;ratioP2
79526;SDS011;68974;47.754;-3.364;2023-07-31T00:01:22;15.98;;;4.45;;
79526;SDS011;68974;47.754;-3.364;2023-07-31T00:03:47;14.98;;;4.95;;
79526;SDS011;68974;47.754;-3.364;2023-07-31T00:06:14;10.95;;;4.65;;
79526;SDS011;68974;47.754;-3.364;2023-07-31T00:08:40;12.10;;;4.13;;
79526;SDS011;68974;47.754;-3.364;2023-07-31T00:11:05;16.42;;;4.38;;
79526;SDS011;68974;47.754;-3.364;2023-07-31T00:13:30;12.60;;;3.92;;
79526;SDS011;68974;47.754;-3.364;2023-07-31T00:15:56;15.30;;;4.65;;
79526;SDS011;68974;47.754;-3.364;2023-07-31T00:18:21;14.77;;;3.83;;
79526;SDS011;68974;47.754;-3.364;2023-07-31T00:20:47;13.65;;;4.25;;
79526;SDS011;68974;47.754;-3.364;2023-07-31T00:23:12;12.68;;;3.97;;
79526;SDS011;68974;47.754;-3.364;2023-07-31T00:25:38;15.30;;;4.47;;
79526;SDS011;68974;47.754;-3.364;2023-07-31T00:28:03;18.08;;;4.53;;
79526;SDS011;68974;47.754;-3.364;2023-07-31T00:30:29;13.60;;;4.95;;
79526;SDS011;68974;47.754;-3.364;2023-07-31T00:32:54;12.73;;;4.15;;
79526;SDS011;68974;47.754;-3.364;2023-07-31T00:35:20;18.75;;;4.78;;
79526;SDS011;68974;47.754;-3.364;2023-07-31T00:37:45;10.07;;;4.32;;
79526;SDS011;68974;47.754;-3.364;2023-07-31T00:40:11;16.05;;;4.32;;
79526;SDS011;68974;47.754;-3.364;2023-07-31T00:42:36;13.77;;;4.20;;
79526;SDS011;68974;47.754;-3.364;2023-07-31T00:45:02;14.52;;;4.20;;
79526;SDS011;68974;47.754;-3.364;2023-07-31T00:47:27;14.98;;;4.55;;
79526;SDS011;68974;47.754;-3.364;2023-07-31T00:49:53;17.42;;;5.30;;
79526;SDS011;68974;47.754;-3.364;2023-07-31T00:52:19;12.70;;;4.13;;
79526;SDS011;68974;47.754;-3.364;2023-07-31T00:54:45;13.75;;;4.38;;
79526;SDS011;68974;47.754;-3.364;2023-07-31T00:57:11;19.27;;;4.32;;
79526;SDS011;68974;47.754;-3.364;2023-07-31T00:59:36;14.02;;;4.80;;
79526;SDS011;68974;47.754;-3.364;2023-07-31T01:02:02;12.38;;;3.78;;
79526;SDS011;68974;47.754;-3.364;2023-07-31T01:04:28;17.35;;;3.83;;
79526;SDS011;68974;47.754;-3.364;2023-07-31T01:07:11;17.95;;;4.78;;
79526;SDS011;68974;47.754;-3.364;2023-07-31T01:09:53;15.50;;;4.00;;
79526;SDS011;68974;47.754;-3.364;2023-07-31T01:12:27;18.42;;;4.75;;
79526;SDS011;68974;47.754;-3.364;2023-07-31T01:15:02;10.50;;;3.95;;
79526;SDS011;68974;47.754;-3.364;2023-07-31T01:17:29;20.83;;;4.35;;
79526;SDS011;68974;47.754;-3.364;2023-07-31T01:19:55;15.32;;;4.53;;
79526;SDS011;68974;47.754;-3.364;2023-07-31T01:26:05;12.55;;;3.90;;
79526;SDS011;68974;47.754;-3.364;2023-07-31T01:31:08;15.23;;;5.25;;
79526;SDS011;68974;47.754;-3.364;2023-07-31T01:33:36;21.10;;;4.97;;
79526;SDS011;68974;47.754;-3.364;2023-07-31T01:36:02;14.38;;;4.68;;
79526;SDS011;68974;47.754;-3.364;2023-07-31T01:38:29;19.83;;;4.43;;
79526;SDS011;68974;47.754;-3.364;2023-07-31T01:40:54;14.93;;;4.28;;
79526;SDS011;68974;47.754;-3.364;2023-07-31T01:43:20;16.02;;;3.90;;
79526;SDS011;68974;47.754;-3.364;2023-07-31T01:45:45;17.35;;;4.55;;
79526;SDS011;68974;47.754;-3.364;2023-07-31T01:48:11;12.93;;;4.32;;
79526;SDS011;68974;47.754;-3.364;2023-07-31T01:50:36;14.75;;;4.13;;
79526;SDS011;68974;47.754;-3.364;2023-07-31T01:53:02;19.13;;;5.07;;
79526;SDS011;68974;47.754;-3.364;2023-07-31T01:55:27;18.60;;;4.53;;
79526;SDS011;68974;47.754;-3.364;2023-07-31T01:57:53;17.75;;;4.75;;
79526;SDS011;68974;47.754;-3.364;2023-07-31T02:00:18;18.33;;;4.05;;
79526;SDS011;68974;47.754;-3.364;2023-07-31T02:02:44;17.55;;;4.32;;
79526;SDS011;68974;47.754;-3.364;2023-07-31T02:05:10;16.13;;;4.65;;
79526;SDS011;68974;47.754;-3.364;2023-07-31T02:07:35;15.20;;;4.40;;
79526;SDS011;68974;47.754;-3.364;2023-07-31T02:10:01;12.65;;;4.68;;
79526;SDS011;68974;47.754;-3.364;2023-07-31T02:12:26;20.50;;;4.13;;
79526;SDS011;68974;47.754;-3.364;2023-07-31T02:14:52;19.23;;;5.38;;
79526;SDS011;68974;47.754;-3.364;2023-07-31T02:17:17;12.75;;;4.88;;
79526;SDS011;68974;47.754;-3.364;2023-07-31T02:19:43;14.60;;;4.35;;
79526;SDS011;68974;47.754;-3.364;2023-07-31T02:22:08;21.98;;;4.90;;
79526;SDS011;68974;47.754;-3.364;2023-07-31T02:24:34;17.05;;;3.72;;
79526;SDS011;68974;47.754;-3.364;2023-07-31T02:26:59;13.10;;;3.85;;
79526;SDS011;68974;47.754;-3.364;2023-07-31T02:29:25;10.95;;;3.50;;
79526;SDS011;68974;47.754;-3.364;2023-07-31T02:31:50;17.10;;;4.03;;
79526;SDS011;68974;47.754;-3.364;2023-07-31T02:34:15;19.02;;;4.30;;
79526;SDS011;68974;47.754;-3.364;2023-07-31T02:36:41;20.60;;;4.25;;
79526;SDS011;68974;47.754;-3.364;2023-07-31T02:39:06;12.88;;;4.07;;
79526;SDS011;68974;47.754;-3.364;2023-07-31T02:41:32;17.02;;;3.78;;
79526;SDS011;68974;47.754;-3.364;2023-07-31T02:43:57;18.05;;;4.82;;
79526;SDS011;68974;47.754;-3.364;2023-07-31T02:46:23;13.57;;;3.92;;
79526;SDS011;68974;47.754;-3.364;2023-07-31T02:48:50;14.95;;;3.58;;
79526;SDS011;68974;47.754;-3.364;2023-07-31T02:51:16;15.75;;;4.20;;
79526;SDS011;68974;47.754;-3.364;2023-07-31T02:53:41;12.80;;;3.85;;
79526;SDS011;68974;47.754;-3.364;2023-07-31T02:56:07;13.90;;;3.80;;
79526;SDS011;68974;47.754;-3.364;2023-07-31T02:58:32;19.38;;;4.13;;
79526;SDS011;68974;47.754;-3.364;2023-07-31T03:00:58;17.15;;;3.70;;
79526;SDS011;68974;47.754;-3.364;2023-07-31T03:03:24;17.60;;;4.63;;
79526;SDS011;68974;47.754;-3.364;2023-07-31T03:05:49;18.45;;;3.72;;
79526;SDS011;68974;47.754;-3.364;2023-07-31T03:08:15;16.23;;;4.30;;
79526;SDS011;68974;47.754;-3.364;2023-07-31T03:10:40;12.80;;;3.88;;
79526;SDS011;68974;47.754;-3.364;2023-07-31T03:13:06;19.92;;;4.18;;
79526;SDS011;68974;47.754;-3.364;2023-07-31T03:15:32;21.02;;;5.50;;
79526;SDS011;68974;47.754;-3.364;2023-07-31T03:17:57;15.38;;;3.60;;
79526;SDS011;68974;47.754;-3.364;2023-07-31T03:20:23;20.73;;;4.97;;
79526;SDS011;68974;47.754;-3.364;2023-07-31T03:22:48;20.95;;;4.40;;
79526;SDS011;68974;47.754;-3.364;2023-07-31T03:25:14;11.80;;;3.67;;
79526;SDS011;68974;47.754;-3.364;2023-07-31T03:27:39;19.08;;;4.20;;
79526;SDS011;68974;47.754;-3.364;2023-07-31T03:30:05;21.77;;;4.90;;
79526;SDS011;68974;47.754;-3.364;2023-07-31T03:32:31;17.85;;;5.00;;
79526;SDS011;68974;47.754;-3.364;2023-07-31T03:34:57;17.27;;;3.95;;
79526;SDS011;68974;47.754;-3.364;2023-07-31T03:37:22;15.35;;;3.85;;
79526;SDS011;68974;47.754;-3.364;2023-07-31T03:39:48;15.13;;;3.90;;
79526;SDS011;68974;47.754;-3.364;2023-07-31T03:42:13;12.13;;;3.47;;
79526;SDS011;68974;47.754;-3.364;2023-07-31T03:44:39;13.40;;;3.47;;
79526;SDS011;68974;47.754;-3.364;2023-07-31T03:47:05;12.00;;;3.70;;
79526;SDS011;68974;47.754;-3.364;2023-07-31T03:49:31;16.38;;;3.85;;
79526;SDS011;68974;47.754;-3.364;2023-07-31T03:51:56;20.13;;;3.78;;
79526;SDS011;68974;47.754;-3.364;2023-07-31T03:54:22;13.43;;;4.05;;
79526;SDS011;68974;47.754;-3.364;2023-07-31T03:56:47;17.73;;;4.53;;
79526;SDS011;68974;47.754;-3.364;2023-07-31T03:59:13;11.88;;;4.15;;
79526;SDS011;68974;47.754;-3.364;2023-07-31T04:01:38;12.20;;;3.63;;
79526;SDS011;68974;47.754;-3.364;2023-07-31T04:04:04;11.68;;;3.22;;
79526;SDS011;68974;47.754;-3.364;2023-07-31T04:06:30;17.50;;;4.35;;
79526;SDS011;68974;47.754;-3.364;2023-07-31T04:08:55;15.00;;;3.65;;
79526;SDS011;68974;47.754;-3.364;2023-07-31T04:11:21;14.07;;;3.92;;
79526;SDS011;68974;47.754;-3.364;2023-07-31T04:13:46;10.13;;;3.10;;
79526;SDS011;68974;47.754;-3.364;2023-07-31T04:16:12;10.45;;;3.60;;
79526;SDS011;68974;47.754;-3.364;2023-07-31T04:18:37;14.65;;;3.97;;
79526;SDS011;68974;47.754;-3.364;2023-07-31T04:21:03;17.05;;;4.65;;
79526;SDS011;68974;47.754;-3.364;2023-07-31T04:23:28;12.48;;;3.53;;
79526;SDS011;68974;47.754;-3.364;2023-07-31T04:25:54;14.60;;;3.70;;
79526;SDS011;68974;47.754;-3.364;2023-07-31T04:28:20;15.35;;;3.47;;
79526;SDS011;68974;47.754;-3.364;2023-07-31T04:30:46;14.90;;;3.53;;
79526;SDS011;68974;47.754;-3.364;2023-07-31T04:33:12;15.70;;;3.83;;
79526;SDS011;68974;47.754;-3.364;2023-07-31T04:35:38;13.55;;;4.85;;
79526;SDS011;68974;47.754;-3.364;2023-07-31T04:38:03;15.57;;;3.40;;
79526;SDS011;68974;47.754;-3.364;2023-07-31T04:40:28;15.00;;;3.72;;
79526;SDS011;68974;47.754;-3.364;2023-07-31T04:42:54;17.88;;;4.28;;
79526;SDS011;68974;47.754;-3.364;2023-07-31T04:45:19;17.15;;;4.90;;
79526;SDS011;68974;47.754;-3.364;2023-07-31T04:47:45;17.70;;;3.78;;
79526;SDS011;68974;47.754;-3.364;2023-07-31T04:50:10;14.15;;;4.60;;
79526;SDS011;68974;47.754;-3.364;2023-07-31T04:52:36;19.60;;;4.38;;
79526;SDS011;68974;47.754;-3.364;2023-07-31T04:55:01;14.15;;;3.50;;
79526;SDS011;68974;47.754;-3.364;2023-07-31T04:57:27;21.90;;;4.25;;
79526;SDS011;68974;47.754;-3.364;2023-07-31T04:59:53;16.00;;;4.75;;
79526;SDS011;68974;47.754;-3.364;2023-07-31T05:02:18;19.98;;;3.80;;
79526;SDS011;68974;47.754;-3.364;2023-07-31T05:04:44;16.10;;;5.28;;
79526;SDS011;68974;47.754;-3.364;2023-07-31T05:07:09;13.63;;;4.00;;
79526;SDS011;68974;47.754;-3.364;2023-07-31T05:09:35;18.55;;;5.35;;
79526;SDS011;68974;47.754;-3.364;2023-07-31T05:12:00;16.17;;;3.95;;
79526;SDS011;68974;47.754;-3.364;2023-07-31T05:14:26;16.00;;;5.03;;
79526;SDS011;68974;47.754;-3.364;2023-07-31T05:16:51;16.33;;;5.28;;
79526;SDS011;68974;47.754;-3.364;2023-07-31T05:19:17;19.45;;;5.60;;
79526;SDS011;68974;47.754;-3.364;2023-07-31T05:21:43;12.43;;;4.63;;
79526;SDS011;68974;47.754;-3.364;2023-07-31T05:24:08;16.20;;;5.25;;
79526;SDS011;68974;47.754;-3.364;2023-07-31T05:26:35;16.75;;;4.75;;
79526;SDS011;68974;47.754;-3.364;2023-07-31T05:29:01;20.00;;;4.78;;
79526;SDS011;68974;47.754;-3.364;2023-07-31T05:31:26;14.82;;;4.03;;
79526;SDS011;68974;47.754;-3.364;2023-07-31T05:33:52;9.80;;;4.05;;
79526;SDS011;68974;47.754;-3.364;2023-07-31T05:36:17;13.40;;;4.25;;
79526;SDS011;68974;47.754;-3.364;2023-07-31T05:38:43;22.60;;;3.95;;
79526;SDS011;68974;47.754;-3.364;2023-07-31T05:41:11;13.48;;;3.75;;
79526;SDS011;68974;47.754;-3.364;2023-07-31T05:43:37;14.70;;;4.20;;
79526;SDS011;68974;47.754;-3.364;2023-07-31T05:46:03;12.77;;;3.70;;
79526;SDS011;68974;47.754;-3.364;2023-07-31T05:48:28;15.63;;;4.38;;
79526;SDS011;68974;47.754;-3.364;2023-07-31T05:50:53;12.40;;;3.88;;
79526;SDS011;68974;47.754;-3.364;2023-07-31T05:53:19;11.50;;;4.55;;
79526;SDS011;68974;47.754;-3.364;2023-07-31T05:55:44;16.67;;;4.43;;
79526;SDS011;68974;47.754;-3.364;2023-07-31T05:58:10;15.10;;;4.47;;
79526;SDS011;68974;47.754;-3.364;2023-07-31T06:00:35;17.58;;;4.15;;
79526;SDS011;68974;47.754;-3.364;2023-07-31T06:03:01;15.27;;;4.28;;
79526;SDS011;68974;47.754;-3.364;2023-07-31T06:05:26;13.05;;;4.07;;
79526;SDS011;68974;47.754;-3.364;2023-07-31T06:07:54;16.98;;;4.93;;
79526;SDS011;68974;47.754;-3.364;2023-07-31T06:10:19;14.23;;;4.50;;
79526;SDS011;68974;47.754;-3.364;2023-07-31T06:12:45;17.92;;;5.90;;
79526;SDS011;68974;47.754;-3.364;2023-07-31T06:15:10;17.77;;;5.38;;
79526;SDS011;68974;47.754;-3.364;2023-07-31T06:17:36;22.20;;;5.22;;
79526;SDS011;68974;47.754;-3.364;2023-07-31T06:20:01;20.60;;;4.63;;
79526;SDS011;68974;47.754;-3.364;2023-07-31T06:22:30;12.43;;;4.30;;
79526;SDS011;68974;47.754;-3.364;2023-07-31T06:24:56;15.23;;;4.35;;
79526;SDS011;68974;47.754;-3.364;2023-07-31T06:27:21;17.70;;;4.18;;
79526;SDS011;68974;47.754;-3.364;2023-07-31T06:29:46;20.98;;;5.95;;
79526;SDS011;68974;47.754;-3.364;2023-07-31T06:32:13;12.60;;;4.70;;
79526;SDS011;68974;47.754;-3.364;2023-07-31T06:34:38;13.45;;;4.30;;
79526;SDS011;68974;47.754;-3.364;2023-07-31T06:37:04;22.73;;;5.07;;
79526;SDS011;68974;47.754;-3.364;2023-07-31T06:39:30;18.90;;;4.55;;
79526;SDS011;68974;47.754;-3.364;2023-07-31T06:41:55;13.48;;;4.40;;
79526;SDS011;68974;47.754;-3.364;2023-07-31T06:44:21;19.88;;;5.03;;
79526;SDS011;68974;47.754;-3.364;2023-07-31T06:46:46;20.38;;;4.97;;
79526;SDS011;68974;47.754;-3.364;2023-07-31T06:49:12;23.73;;;5.50;;
79526;SDS011;68974;47.754;-3.364;2023-07-31T06:51:37;24.70;;;4.78;;
79526;SDS011;68974;47.754;-3.364;2023-07-31T06:54:03;17.10;;;5.32;;
79526;SDS011;68974;47.754;-3.364;2023-07-31T06:56:29;21.27;;;4.63;;
79526;SDS011;68974;47.754;-3.364;2023-07-31T06:58:55;17.45;;;4.68;;
79526;SDS011;68974;47.754;-3.364;2023-07-31T07:01:20;20.67;;;4.97;;
79526;SDS011;68974;47.754;-3.364;2023-07-31T07:03:46;19.05;;;4.70;;
79526;SDS011;68974;47.754;-3.364;2023-07-31T07:06:11;38.80;;;7.05;;
79526;SDS011;68974;47.754;-3.364;2023-07-31T07:08:37;18.15;;;4.97;;
79526;SDS011;68974;47.754;-3.364;2023-07-31T07:11:02;27.40;;;7.00;;
79526;SDS011;68974;47.754;-3.364;2023-07-31T07:13:28;19.02;;;8.18;;
79526;SDS011;68974;47.754;-3.364;2023-07-31T07:15:54;26.88;;;7.10;;
79526;SDS011;68974;47.754;-3.364;2023-07-31T07:18:19;20.15;;;5.05;;
79526;SDS011;68974;47.754;-3.364;2023-07-31T07:20:46;21.17;;;5.78;;
79526;SDS011;68974;47.754;-3.364;2023-07-31T07:23:14;24.55;;;5.45;;
79526;SDS011;68974;47.754;-3.364;2023-07-31T07:25:40;21.27;;;5.90;;
79526;SDS011;68974;47.754;-3.364;2023-07-31T07:28:05;19.42;;;4.57;;
79526;SDS011;68974;47.754;-3.364;2023-07-31T07:30:31;17.25;;;4.78;;
79526;SDS011;68974;47.754;-3.364;2023-07-31T07:32:56;30.25;;;5.60;;
79526;SDS011;68974;47.754;-3.364;2023-07-31T07:35:22;17.80;;;4.45;;
79526;SDS011;68974;47.754;-3.364;2023-07-31T07:37:50;21.75;;;4.18;;
79526;SDS011;68974;47.754;-3.364;2023-07-31T07:40:16;12.63;;;4.15;;
79526;SDS011;68974;47.754;-3.364;2023-07-31T07:42:41;19.15;;;4.40;;
79526;SDS011;68974;47.754;-3.364;2023-07-31T07:45:07;16.23;;;3.85;;
79526;SDS011;68974;47.754;-3.364;2023-07-31T07:47:33;18.98;;;4.97;;
79526;SDS011;68974;47.754;-3.364;2023-07-31T07:49:58;13.80;;;4.22;;
79526;SDS011;68974;47.754;-3.364;2023-07-31T07:52:24;18.67;;;5.22;;
79526;SDS011;68974;47.754;-3.364;2023-07-31T07:54:49;17.90;;;4.22;;
79526;SDS011;68974;47.754;-3.364;2023-07-31T07:57:15;15.50;;;4.07;;
79526;SDS011;68974;47.754;-3.364;2023-07-31T07:59:41;14.27;;;4.97;;
79526;SDS011;68974;47.754;-3.364;2023-07-31T08:02:07;18.67;;;4.60;;
79526;SDS011;68974;47.754;-3.364;2023-07-31T08:04:32;20.80;;;6.03;;
79526;SDS011;68974;47.754;-3.364;2023-07-31T08:06:58;12.95;;;3.72;;
79526;SDS011;68974;47.754;-3.364;2023-07-31T08:09:23;22.45;;;5.20;;
79526;SDS011;68974;47.754;-3.364;2023-07-31T08:11:49;17.70;;;4.53;;
79526;SDS011;68974;47.754;-3.364;2023-07-31T08:14:14;20.55;;;4.50;;
79526;SDS011;68974;47.754;-3.364;2023-07-31T08:16:39;19.33;;;4.88;;
79526;SDS011;68974;47.754;-3.364;2023-07-31T08:19:05;16.15;;;4.05;;
79526;SDS011;68974;47.754;-3.364;2023-07-31T08:21:31;23.25;;;4.80;;
79526;SDS011;68974;47.754;-3.364;2023-07-31T08:23:56;15.85;;;4.70;;
79526;SDS011;68974;47.754;-3.364;2023-07-31T08:26:22;22.83;;;4.88;;
79526;SDS011;68974;47.754;-3.364;2023-07-31T08:28:48;21.35;;;5.35;;
79526;SDS011;68974;47.754;-3.364;2023-07-31T08:31:13;15.68;;;4.63;;
79526;SDS011;68974;47.754;-3.364;2023-07-31T08:33:39;21.83;;;4.97;;
79526;SDS011;68974;47.754;-3.364;2023-07-31T08:36:05;15.93;;;4.28;;
79526;SDS011;68974;47.754;-3.364;2023-07-31T08:38:31;23.38;;;5.13;;
79526;SDS011;68974;47.754;-3.364;2023-07-31T08:40:57;18.95;;;5.28;;
79526;SDS011;68974;47.754;-3.364;2023-07-31T08:43:25;14.68;;;3.90;;
79526;SDS011;68974;47.754;-3.364;2023-07-31T08:45:51;20.90;;;5.60;;
79526;SDS011;68974;47.754;-3.364;2023-07-31T08:48:17;19.40;;;5.45;;
79526;SDS011;68974;47.754;-3.364;2023-07-31T08:50:44;16.45;;;3.97;;
79526;SDS011;68974;47.754;-3.364;2023-07-31T08:53:10;18.90;;;5.00;;
79526;SDS011;68974;47.754;-3.364;2023-07-31T08:55:36;20.02;;;5.13;;
79526;SDS011;68974;47.754;-3.364;2023-07-31T08:58:03;16.17;;;4.10;;
79526;SDS011;68974;47.754;-3.364;2023-07-31T09:00:29;19.42;;;4.90;;
79526;SDS011;68974;47.754;-3.364;2023-07-31T09:03:06;16.77;;;4.40;;
79526;SDS011;68974;47.754;-3.364;2023-07-31T09:05:34;19.40;;;4.25;;
79526;SDS011;68974;47.754;-3.364;2023-07-31T09:08:01;22.95;;;5.28;;
79526;SDS011;68974;47.754;-3.364;2023-07-31T09:10:29;21.63;;;5.43;;
79526;SDS011;68974;47.754;-3.364;2023-07-31T09:12:55;15.05;;;4.22;;
79526;SDS011;68974;47.754;-3.364;2023-07-31T09:15:21;18.48;;;4.40;;
79526;SDS011;68974;47.754;-3.364;2023-07-31T09:17:48;20.38;;;5.40;;
79526;SDS011;68974;47.754;-3.364;2023-07-31T09:20:24;20.55;;;4.85;;
79526;SDS011;68974;47.754;-3.364;2023-07-31T09:22:49;19.42;;;4.88;;
79526;SDS011;68974;47.754;-3.364;2023-07-31T09:25:25;15.43;;;4.45;;
79526;SDS011;68974;47.754;-3.364;2023-07-31T09:27:56;18.58;;;4.72;;
79526;SDS011;68974;47.754;-3.364;2023-07-31T09:30:23;16.80;;;4.57;;
79526;SDS011;68974;47.754;-3.364;2023-07-31T09:32:50;12.98;;;3.88;;
79526;SDS011;68974;47.754;-3.364;2023-07-31T09:37:53;15.82;;;4.80;;
79526;SDS011;68974;47.754;-3.364;2023-07-31T09:40:30;19.75;;;5.55;;
79526;SDS011;68974;47.754;-3.364;2023-07-31T09:45:23;14.95;;;4.43;;
79526;SDS011;68974;47.754;-3.364;2023-07-31T09:47:49;17.73;;;4.55;;
79526;SDS011;68974;47.754;-3.364;2023-07-31T09:50:14;20.40;;;4.65;;
79526;SDS011;68974;47.754;-3.364;2023-07-31T09:52:43;15.50;;;4.88;;
79526;SDS011;68974;47.754;-3.364;2023-07-31T09:55:09;18.35;;;4.57;;
79526;SDS011;68974;47.754;-3.364;2023-07-31T09:57:45;16.20;;;5.03;;
79526;SDS011;68974;47.754;-3.364;2023-07-31T10:00:12;16.23;;;4.50;;
79526;SDS011;68974;47.754;-3.364;2023-07-31T10:02:40;11.40;;;4.00;;
79526;SDS011;68974;47.754;-3.364;2023-07-31T10:05:06;14.88;;;4.28;;
79526;SDS011;68974;47.754;-3.364;2023-07-31T10:07:42;12.70;;;4.22;;
79526;SDS011;68974;47.754;-3.364;2023-07-31T10:10:15;9.85;;;3.53;;
79526;SDS011;68974;47.754;-3.364;2023-07-31T10:12:41;10.05;;;2.97;;
79526;SDS011;68974;47.754;-3.364;2023-07-31T10:15:09;6.65;;;2.45;;
79526;SDS011;68974;47.754;-3.364;2023-07-31T10:17:35;9.65;;;3.28;;
79526;SDS011;68974;47.754;-3.364;2023-07-31T10:20:02;6.75;;;3.40;;
79526;SDS011;68974;47.754;-3.364;2023-07-31T10:22:30;10.10;;;3.33;;
79526;SDS011;68974;47.754;-3.364;2023-07-31T10:25:00;8.98;;;3.45;;
79526;SDS011;68974;47.754;-3.364;2023-07-31T10:27:26;12.35;;;4.72;;
79526;SDS011;68974;47.754;-3.364;2023-07-31T10:29:52;8.40;;;3.50;;
79526;SDS011;68974;47.754;-3.364;2023-07-31T10:32:20;15.80;;;4.32;;
79526;SDS011;68974;47.754;-3.364;2023-07-31T10:34:46;13.55;;;4.53;;
79526;SDS011;68974;47.754;-3.364;2023-07-31T10:39:55;12.85;;;3.58;;
79526;SDS011;68974;47.754;-3.364;2023-07-31T10:42:27;17.05;;;5.05;;
79526;SDS011;68974;47.754;-3.364;2023-07-31T10:45:01;14.45;;;3.85;;
79526;SDS011;68974;47.754;-3.364;2023-07-31T10:47:38;12.65;;;4.13;;
79526;SDS011;68974;47.754;-3.364;2023-07-31T10:50:10;18.35;;;4.50;;
79526;SDS011;68974;47.754;-3.364;2023-07-31T10:52:36;12.13;;;4.15;;
79526;SDS011;68974;47.754;-3.364;2023-07-31T10:58:09;15.68;;;5.35;;
79526;SDS011;68974;47.754;-3.364;2023-07-31T11:00:39;21.30;;;5.50;;
79526;SDS011;68974;47.754;-3.364;2023-07-31T11:03:14;18.70;;;4.78;;
79526;SDS011;68974;47.754;-3.364;2023-07-31T11:05:53;14.98;;;4.90;;
79526;SDS011;68974;47.754;-3.364;2023-07-31T11:08:26;17.52;;;5.13;;
79526;SDS011;68974;47.754;-3.364;2023-07-31T11:13:49;16.13;;;4.47;;
79526;SDS011;68974;47.754;-3.364;2023-07-31T11:16:18;16.05;;;3.97;;
79526;SDS011;68974;47.754;-3.364;2023-07-31T11:18:45;12.45;;;4.15;;
79526;SDS011;68974;47.754;-3.364;2023-07-31T11:21:13;12.48;;;3.85;;
79526;SDS011;68974;47.754;-3.364;2023-07-31T11:23:47;10.40;;;3.28;;
79526;SDS011;68974;47.754;-3.364;2023-07-31T11:26:13;8.98;;;2.90;;
79526;SDS011;68974;47.754;-3.364;2023-07-31T11:28:39;9.60;;;3.30;;
79526;SDS011;68974;47.754;-3.364;2023-07-31T11:31:08;10.27;;;3.13;;
79526;SDS011;68974;47.754;-3.364;2023-07-31T11:33:35;9.48;;;3.38;;
79526;SDS011;68974;47.754;-3.364;2023-07-31T11:36:00;10.63;;;2.88;;
79526;SDS011;68974;47.754;-3.364;2023-07-31T11:38:27;10.73;;;3.60;;
79526;SDS011;68974;47.754;-3.364;2023-07-31T11:40:55;14.45;;;3.53;;
79526;SDS011;68974;47.754;-3.364;2023-07-31T11:43:22;11.63;;;3.97;;
79526;SDS011;68974;47.754;-3.364;2023-07-31T11:45:48;15.00;;;5.13;;
79526;SDS011;68974;47.754;-3.364;2023-07-31T11:48:22;16.17;;;4.70;;
79526;SDS011;68974;47.754;-3.364;2023-07-31T11:50:52;13.63;;;4.30;;
79526;SDS011;68974;47.754;-3.364;2023-07-31T11:53:29;11.85;;;4.60;;
79526;SDS011;68974;47.754;-3.364;2023-07-31T11:56:00;11.70;;;4.15;;
79526;SDS011;68974;47.754;-3.364;2023-07-31T11:58:29;12.15;;;4.20;;
79526;SDS011;68974;47.754;-3.364;2023-07-31T12:03:22;12.00;;;5.35;;
79526;SDS011;68974;47.754;-3.364;2023-07-31T12:05:49;17.73;;;4.88;;
79526;SDS011;68974;47.754;-3.364;2023-07-31T12:08:14;20.40;;;5.32;;
79526;SDS011;68974;47.754;-3.364;2023-07-31T12:10:41;18.42;;;5.88;;
79526;SDS011;68974;47.754;-3.364;2023-07-31T12:13:10;17.92;;;5.22;;
79526;SDS011;68974;47.754;-3.364;2023-07-31T12:15:41;21.15;;;5.82;;
79526;SDS011;68974;47.754;-3.364;2023-07-31T12:18:10;25.75;;;5.72;;
79526;SDS011;68974;47.754;-3.364;2023-07-31T12:20:40;14.65;;;4.93;;
79526;SDS011;68974;47.754;-3.364;2023-07-31T12:23:14;27.50;;;5.05;;
79526;SDS011;68974;47.754;-3.364;2023-07-31T12:25:41;20.95;;;6.00;;
79526;SDS011;68974;47.754;-3.364;2023-07-31T12:28:07;20.95;;;5.28;;
79526;SDS011;68974;47.754;-3.364;2023-07-31T12:30:36;24.20;;;5.10;;
79526;SDS011;68974;47.754;-3.364;2023-07-31T12:33:06;26.05;;;5.65;;
79526;SDS011;68974;47.754;-3.364;2023-07-31T12:35:37;21.45;;;6.63;;
79526;SDS011;68974;47.754;-3.364;2023-07-31T12:38:05;21.80;;;5.18;;
79526;SDS011;68974;47.754;-3.364;2023-07-31T12:40:31;21.80;;;5.82;;
79526;SDS011;68974;47.754;-3.364;2023-07-31T12:42:57;24.88;;;5.60;;
79526;SDS011;68974;47.754;-3.364;2023-07-31T12:45:22;18.15;;;5.22;;
79526;SDS011;68974;47.754;-3.364;2023-07-31T12:47:48;25.35;;;5.70;;
79526;SDS011;68974;47.754;-3.364;2023-07-31T12:50:14;17.80;;;5.32;;
79526;SDS011;68974;47.754;-3.364;2023-07-31T12:52:39;19.50;;;5.43;;
79526;SDS011;68974;47.754;-3.364;2023-07-31T12:55:05;24.23;;;5.95;;
79526;SDS011;68974;47.754;-3.364;2023-07-31T12:57:30;20.48;;;5.38;;
79526;SDS011;68974;47.754;-3.364;2023-07-31T12:59:56;17.38;;;5.88;;
79526;SDS011;68974;47.754;-3.364;2023-07-31T13:02:21;25.05;;;6.53;;
79526;SDS011;68974;47.754;-3.364;2023-07-31T13:04:48;25.23;;;5.45;;
79526;SDS011;68974;47.754;-3.364;2023-07-31T13:07:14;23.60;;;5.45;;
79526;SDS011;68974;47.754;-3.364;2023-07-31T13:09:40;22.92;;;6.03;;
79526;SDS011;68974;47.754;-3.364;2023-07-31T13:12:06;27.10;;;7.35;;
79526;SDS011;68974;47.754;-3.364;2023-07-31T13:14:31;20.80;;;6.00;;
79526;SDS011;68974;47.754;-3.364;2023-07-31T13:16:57;18.20;;;5.80;;
79526;SDS011;68974;47.754;-3.364;2023-07-31T13:19:22;24.13;;;6.15;;
79526;SDS011;68974;47.754;-3.364;2023-07-31T13:21:48;17.63;;;4.85;;
79526;SDS011;68974;47.754;-3.364;2023-07-31T13:24:13;17.75;;;5.90;;
79526;SDS011;68974;47.754;-3.364;2023-07-31T13:26:39;20.45;;;6.15;;
79526;SDS011;68974;47.754;-3.364;2023-07-31T13:29:04;17.92;;;6.55;;
79526;SDS011;68974;47.754;-3.364;2023-07-31T13:31:30;25.23;;;6.20;;
79526;SDS011;68974;47.754;-3.364;2023-07-31T13:33:55;26.95;;;6.70;;
79526;SDS011;68974;47.754;-3.364;2023-07-31T13:36:21;26.30;;;7.35;;
79526;SDS011;68974;47.754;-3.364;2023-07-31T13:38:46;21.73;;;5.90;;
79526;SDS011;68974;47.754;-3.364;2023-07-31T13:41:12;23.20;;;5.93;;
79526;SDS011;68974;47.754;-3.364;2023-07-31T13:43:37;36.17;;;7.32;;
79526;SDS011;68974;47.754;-3.364;2023-07-31T13:46:02;25.15;;;6.65;;
79526;SDS011;68974;47.754;-3.364;2023-07-31T13:48:32;24.38;;;6.50;;
79526;SDS011;68974;47.754;-3.364;2023-07-31T13:50:59;25.38;;;6.65;;
79526;SDS011;68974;47.754;-3.364;2023-07-31T13:53:25;28.67;;;6.78;;
79526;SDS011;68974;47.754;-3.364;2023-07-31T13:55:50;32.38;;;7.18;;
79526;SDS011;68974;47.754;-3.364;2023-07-31T13:58:16;18.70;;;6.63;;
79526;SDS011;68974;47.754;-3.364;2023-07-31T14:00:42;33.85;;;8.02;;
79526;SDS011;68974;47.754;-3.364;2023-07-31T14:03:07;23.27;;;7.15;;
79526;SDS011;68974;47.754;-3.364;2023-07-31T14:05:33;25.30;;;6.35;;
79526;SDS011;68974;47.754;-3.364;2023-07-31T14:07:58;28.75;;;7.93;;
79526;SDS011;68974;47.754;-3.364;2023-07-31T14:10:24;24.42;;;7.47;;
79526;SDS011;68974;47.754;-3.364;2023-07-31T14:12:49;29.80;;;7.72;;
79526;SDS011;68974;47.754;-3.364;2023-07-31T14:15:14;29.80;;;6.70;;
79526;SDS011;68974;47.754;-3.364;2023-07-31T14:17:40;24.55;;;6.72;;
79526;SDS011;68974;47.754;-3.364;2023-07-31T14:20:05;23.13;;;6.80;;
79526;SDS011;68974;47.754;-3.364;2023-07-31T14:22:31;27.75;;;7.30;;
79526;SDS011;68974;47.754;-3.364;2023-07-31T14:24:58;24.77;;;5.90;;
79526;SDS011;68974;47.754;-3.364;2023-07-31T14:27:24;29.75;;;7.53;;
79526;SDS011;68974;47.754;-3.364;2023-07-31T14:29:49;29.00;;;7.70;;
79526;SDS011;68974;47.754;-3.364;2023-07-31T14:32:14;33.83;;;6.55;;
79526;SDS011;68974;47.754;-3.364;2023-07-31T14:34:40;35.22;;;7.88;;
79526;SDS011;68974;47.754;-3.364;2023-07-31T14:37:06;28.55;;;7.28;;
79526;SDS011;68974;47.754;-3.364;2023-07-31T14:39:31;26.52;;;6.72;;